createdAt,value
2018-01-27T00:01:28.772Z,101065.41
2018-01-27T00:03:56.265Z,101075.75
2018-01-27T00:06:23.739Z,101086.17
2018-01-27T00:08:51.239Z,101079.34
2018-01-27T00:11:18.727Z,101079.94
2018-01-27T00:13:51.182Z,101082.46
2018-01-27T00:16:18.765Z,101082.39
2018-01-27T00:18:46.233Z,101081.80
2018-01-27T00:21:13.845Z,101092.22
2018-01-27T00:23:41.385Z,101089.41
2018-01-27T00:26:08.885Z,101093.52
2018-01-27T00:28:36.418Z,101101.64
2018-01-27T00:31:03.889Z,101103.69
2018-01-27T00:33:31.366Z,101109.23
2018-01-27T00:35:58.930Z,101109.45
2018-01-27T00:38:26.502Z,101112.55
2018-01-27T00:40:53.968Z,101109.69
2018-01-27T00:43:21.469Z,101116.13
2018-01-27T00:45:48.941Z,101113.98
2018-01-27T00:48:16.401Z,101112.06
2018-01-27T00:50:44.006Z,101114.31
2018-01-27T00:53:11.486Z,101114.84
2018-01-27T00:55:38.973Z,101113.11
2018-01-27T00:58:06.436Z,101122.08
2018-01-27T01:00:33.910Z,101121.67
2018-01-27T01:03:01.399Z,101123.56
2018-01-27T01:05:28.870Z,101122.08
2018-01-27T01:07:56.350Z,101123.41
2018-01-27T01:10:23.868Z,101125.83
2018-01-27T01:12:51.564Z,101124.62
2018-01-27T01:15:19.251Z,101127.67
2018-01-27T01:17:46.724Z,101126.47
2018-01-27T01:20:14.180Z,101131.58
2018-01-27T01:22:41.657Z,101124.81
2018-01-27T01:25:09.135Z,101124.17
2018-01-27T01:27:36.671Z,101136.00
2018-01-27T01:30:04.194Z,101128.77
2018-01-27T01:32:31.683Z,101131.54
2018-01-27T01:34:59.141Z,101127.75
2018-01-27T01:37:26.617Z,101127.27
2018-01-27T01:39:54.075Z,101128.08
2018-01-27T01:42:27.212Z,101128.00
2018-01-27T01:44:54.761Z,101131.34
2018-01-27T01:47:22.241Z,101134.03
2018-01-27T01:49:49.735Z,101136.73
2018-01-27T01:52:17.193Z,101134.27
2018-01-27T01:54:44.672Z,101126.02
2018-01-27T01:57:12.158Z,101128.92
2018-01-27T01:59:39.646Z,101132.91
2018-01-27T02:02:07.118Z,101119.66
2018-01-27T02:04:34.702Z,101122.84
2018-01-27T02:07:02.170Z,101121.44
2018-01-27T02:09:29.681Z,101121.95
2018-01-27T02:11:57.142Z,101120.08
2018-01-27T02:14:24.684Z,101120.51
2018-01-27T02:16:52.158Z,101117.41
2018-01-27T02:19:19.631Z,101118.78
2018-01-27T02:21:47.131Z,101128.16
2018-01-27T02:24:14.584Z,101133.46
2018-01-27T02:26:42.071Z,101143.68
2018-01-27T02:29:09.600Z,101144.80
2018-01-27T02:31:37.181Z,101143.68
2018-01-27T02:34:05.037Z,101144.98
2018-01-27T02:36:32.624Z,101151.94
2018-01-27T02:39:00.102Z,101152.54
2018-01-27T02:41:27.665Z,101159.34
2018-01-27T02:43:55.148Z,101156.05
2018-01-27T02:46:22.604Z,101164.33
2018-01-27T02:48:50.081Z,101170.56
2018-01-27T02:51:17.546Z,101167.59
2018-01-27T02:53:45.122Z,101165.77
2018-01-27T02:56:12.597Z,101173.07
2018-01-27T02:58:40.075Z,101164.69
2018-01-27T03:01:07.534Z,101174.68
2018-01-27T03:03:35.020Z,101176.97
2018-01-27T03:06:02.499Z,101188.84
2018-01-27T03:08:29.961Z,101195.59
2018-01-27T03:10:57.439Z,101195.88
2018-01-27T03:13:24.909Z,101197.59
2018-01-27T03:15:52.448Z,101198.40
2018-01-27T03:18:19.912Z,101195.52
2018-01-27T03:20:47.402Z,101200.98
2018-01-27T03:23:14.964Z,101198.73
2018-01-27T03:25:42.437Z,101200.30
2018-01-27T03:28:10.017Z,101202.34
2018-01-27T03:30:37.583Z,101205.92
2018-01-27T03:33:05.059Z,101203.59
2018-01-27T03:35:32.520Z,101208.06
2018-01-27T03:38:00.005Z,101198.86
2018-01-27T03:40:27.479Z,101202.34
2018-01-27T03:42:54.954Z,101210.11
2018-01-27T03:45:22.503Z,101211.67
2018-01-27T03:47:50.025Z,101216.34
2018-01-27T03:50:17.536Z,101223.02
2018-01-27T03:52:44.999Z,101224.06
2018-01-27T03:55:12.495Z,101218.23
2018-01-27T03:57:39.950Z,101220.08
2018-01-27T04:00:07.567Z,101228.53
2018-01-27T04:02:35.097Z,101231.70
2018-01-27T04:05:02.584Z,101230.47
2018-01-27T04:07:30.128Z,101236.47
2018-01-27T04:09:57.700Z,101232.72
2018-01-27T04:12:25.285Z,101238.34
2018-01-27T04:14:52.787Z,101243.36
2018-01-27T04:17:20.261Z,101243.87
2018-01-27T04:19:47.755Z,101247.34
2018-01-27T04:22:15.264Z,101242.33
2018-01-27T04:24:42.738Z,101249.28
2018-01-27T04:27:10.241Z,101247.03
2018-01-27T04:29:37.722Z,101256.93
2018-01-27T04:32:05.183Z,101257.34
2018-01-27T04:34:32.700Z,101253.44
2018-01-27T04:37:00.189Z,101252.40
2018-01-27T04:39:27.670Z,101265.88
2018-01-27T04:41:55.130Z,101264.75
2018-01-27T04:44:22.655Z,101274.75
2018-01-27T04:46:50.165Z,101276.48
2018-01-27T04:49:17.622Z,101279.02
2018-01-27T04:51:45.151Z,101282.37
2018-01-27T04:54:12.641Z,101285.02
2018-01-27T04:56:40.137Z,101288.00
2018-01-27T04:59:07.602Z,101291.34
2018-01-27T05:01:35.187Z,101294.17
2018-01-27T05:04:02.661Z,101293.40
2018-01-27T05:06:30.150Z,101298.19
2018-01-27T05:08:57.707Z,101304.02
2018-01-27T05:11:25.167Z,101303.33
2018-01-27T05:13:52.646Z,101302.78
2018-01-27T05:16:20.096Z,101307.17
2018-01-27T05:18:47.681Z,101306.36
2018-01-27T05:21:15.136Z,101311.79
2018-01-27T05:23:42.618Z,101305.67
2018-01-27T05:26:10.081Z,101307.66
2018-01-27T05:28:37.585Z,101303.73
2018-01-27T05:31:05.148Z,101312.83
2018-01-27T05:33:32.597Z,101321.92
2018-01-27T05:36:00.080Z,101329.03
2018-01-27T05:38:27.638Z,101333.24
2018-01-27T05:40:55.122Z,101338.13
2018-01-27T05:43:22.621Z,101345.87
2018-01-27T05:45:50.164Z,101350.62
2018-01-27T05:48:17.719Z,101353.75
2018-01-27T05:50:45.193Z,101350.89
2018-01-27T05:53:12.658Z,101358.95
2018-01-27T05:55:40.140Z,101357.41
2018-01-27T05:58:07.600Z,101364.78
2018-01-27T06:00:35.070Z,101367.44
2018-01-27T06:03:02.554Z,101376.23
2018-01-27T06:05:30.000Z,101383.98
2018-01-27T06:07:57.471Z,101381.01
2018-01-27T06:10:25.048Z,101380.30
2018-01-27T06:12:52.516Z,101382.87
2018-01-27T06:15:20.139Z,101389.34
2018-01-27T06:17:47.605Z,101396.77
2018-01-27T06:20:15.095Z,101398.82
2018-01-27T06:22:42.602Z,101399.22
2018-01-27T06:25:10.072Z,101406.97
2018-01-27T06:27:37.538Z,101400.73
2018-01-27T06:30:05.102Z,101408.20
2018-01-27T06:32:32.558Z,101397.59
2018-01-27T06:35:00.037Z,101403.63
2018-01-27T06:37:27.528Z,101408.11
2018-01-27T06:39:55.096Z,101413.41
2018-01-27T06:42:22.557Z,101416.79
2018-01-27T06:44:50.127Z,101420.14
2018-01-27T06:47:17.604Z,101422.19
2018-01-27T06:49:45.093Z,101432.30
2018-01-27T06:52:12.567Z,101437.69
2018-01-27T06:54:40.138Z,101449.33
2018-01-27T06:57:07.720Z,101454.95
2018-01-27T06:59:35.379Z,101455.98
2018-01-27T07:02:02.842Z,101456.20
2018-01-27T07:04:30.303Z,101458.23
2018-01-27T07:06:57.795Z,101458.63
2018-01-27T07:09:25.348Z,101465.17
2018-01-27T07:11:52.968Z,101461.59
2018-01-27T07:14:20.438Z,101463.73
2018-01-27T07:16:47.998Z,101458.52
2018-01-27T07:19:15.551Z,101468.23
2018-01-27T07:21:43.113Z,101474.56
2018-01-27T07:24:10.591Z,101477.03
2018-01-27T07:26:38.153Z,101480.94
2018-01-27T07:29:05.777Z,101486.77
2018-01-27T07:31:33.236Z,101491.75
2018-01-27T07:34:00.780Z,101490.72
2018-01-27T07:36:28.237Z,101498.34
2018-01-27T07:38:55.781Z,101507.54
2018-01-27T07:41:23.261Z,101500.94
2018-01-27T07:43:50.767Z,101501.74
2018-01-27T07:46:18.256Z,101502.15
2018-01-27T07:48:45.799Z,101500.41
2018-01-27T07:51:13.371Z,101508.56
2018-01-27T07:53:40.932Z,101522.84
2018-01-27T07:56:08.422Z,101513.23
2018-01-27T07:58:36.012Z,101519.08
2018-01-27T08:01:03.545Z,101522.46
2018-01-27T08:03:31.016Z,101528.69
2018-01-27T08:05:58.488Z,101523.18
2018-01-27T08:08:26.096Z,101529.31
2018-01-27T08:10:53.560Z,101539.50
2018-01-27T08:13:21.049Z,101545.63
2018-01-27T08:15:48.584Z,101533.87
2018-01-27T08:18:16.067Z,101540.53
2018-01-27T08:20:43.641Z,101539.72
2018-01-27T08:23:11.138Z,101542.91
2018-01-27T08:25:38.615Z,101545.97
2018-01-27T08:28:06.089Z,101546.78
2018-01-27T08:30:33.562Z,101537.77
2018-01-27T08:33:01.025Z,101536.73
2018-01-27T08:35:28.553Z,101540.97
2018-01-27T08:37:56.002Z,101542.02
2018-01-27T08:40:23.493Z,101541.30
2018-01-27T08:42:50.958Z,101545.45
2018-01-27T08:45:18.450Z,101544.05
2018-01-27T08:47:45.915Z,101547.89
2018-01-27T08:50:13.365Z,101547.72
2018-01-27T08:52:40.866Z,101557.81
2018-01-27T08:55:08.333Z,101555.85
2018-01-27T08:57:35.820Z,101566.20
2018-01-27T09:00:03.292Z,101572.17
2018-01-27T09:02:30.761Z,101570.52
2018-01-27T09:04:58.233Z,101580.02
2018-01-27T09:07:25.731Z,101575.72
2018-01-27T09:09:53.217Z,101580.63
2018-01-27T09:12:20.682Z,101584.66
2018-01-27T09:14:48.273Z,101582.62
2018-01-27T09:17:15.732Z,101588.61
2018-01-27T09:19:43.207Z,101591.85
2018-01-27T09:22:10.683Z,101585.11
2018-01-27T09:24:38.136Z,101585.72
2018-01-27T09:27:05.736Z,101581.73
2018-01-27T09:29:33.309Z,101587.55
2018-01-27T09:32:00.791Z,101596.86
2018-01-27T09:34:28.266Z,101604.41
2018-01-27T09:36:56.320Z,101615.36
2018-01-27T09:39:23.890Z,101611.67
2018-01-27T09:41:51.366Z,101616.08
2018-01-27T09:44:18.946Z,101610.17
2018-01-27T09:46:46.505Z,101603.81
2018-01-27T09:49:14.075Z,101599.81
2018-01-27T09:51:41.540Z,101605.48
2018-01-27T09:54:09.029Z,101610.81
2018-01-27T09:56:36.589Z,101610.14
2018-01-27T09:59:04.076Z,101615.55
2018-01-27T10:01:31.623Z,101611.22
2018-01-27T10:03:59.098Z,101614.98
2018-01-27T10:06:26.581Z,101616.13
2018-01-27T10:08:54.050Z,101614.72
2018-01-27T10:11:21.613Z,101621.46
2018-01-27T10:13:49.189Z,101618.80
2018-01-27T10:16:16.657Z,101616.83
2018-01-27T10:18:44.252Z,101613.31
2018-01-27T10:21:11.718Z,101620.86
2018-01-27T10:23:39.223Z,101618.08
2018-01-27T10:26:06.745Z,101616.50
2018-01-27T10:28:34.220Z,101619.65
2018-01-27T10:31:01.688Z,101613.09
2018-01-27T10:33:29.190Z,101614.27
2018-01-27T10:35:56.709Z,101615.07
2018-01-27T10:38:24.184Z,101608.98
2018-01-27T10:40:51.675Z,101612.81
2018-01-27T10:43:19.164Z,101606.77
2018-01-27T10:45:46.652Z,101613.86
2018-01-27T10:48:14.142Z,101609.48
2018-01-27T10:50:41.740Z,101613.30
2018-01-27T10:53:09.205Z,101619.15
2018-01-27T10:55:36.710Z,101623.92
2018-01-27T10:58:04.253Z,101622.92
2018-01-27T11:00:31.736Z,101624.49
2018-01-27T11:02:59.234Z,101633.66
2018-01-27T11:05:26.711Z,101636.94
2018-01-27T11:07:54.256Z,101639.72
2018-01-27T11:10:21.722Z,101635.39
2018-01-27T11:12:49.274Z,101643.27
2018-01-27T11:15:16.758Z,101637.81
2018-01-27T11:17:44.340Z,101637.69
2018-01-27T11:20:11.860Z,101635.14
2018-01-27T11:22:39.900Z,101633.77
2018-01-27T11:25:07.402Z,101640.48
2018-01-27T11:27:34.923Z,101639.12
2018-01-27T11:30:02.412Z,101640.61
2018-01-27T11:32:29.986Z,101646.19
2018-01-27T11:34:57.536Z,101646.63
2018-01-27T11:37:25.034Z,101642.38
2018-01-27T11:39:52.587Z,101649.77
2018-01-27T11:42:20.082Z,101647.72
2018-01-27T11:44:47.562Z,101650.09
2018-01-27T11:47:15.044Z,101647.63
2018-01-27T11:49:42.567Z,101653.38
2018-01-27T11:52:10.046Z,101648.02
2018-01-27T11:54:37.599Z,101644.16
2018-01-27T11:57:05.082Z,101644.70
2018-01-27T11:59:32.634Z,101645.54
2018-01-27T12:02:00.150Z,101650.09
2018-01-27T12:04:27.633Z,101646.89
2018-01-27T12:06:55.448Z,101650.28
2018-01-27T12:09:22.923Z,101644.28
2018-01-27T12:11:50.384Z,101649.69
2018-01-27T12:14:17.852Z,101641.12
2018-01-27T12:16:45.313Z,101650.08
2018-01-27T12:19:12.993Z,101650.73
2018-01-27T12:21:40.476Z,101650.96
2018-01-27T12:24:08.066Z,101651.88
2018-01-27T12:26:35.620Z,101648.16
2018-01-27T12:29:03.094Z,101643.86
2018-01-27T12:31:30.605Z,101648.89
2018-01-27T12:33:58.180Z,101647.08
2018-01-27T12:36:25.710Z,101644.87
2018-01-27T12:38:53.177Z,101651.85
2018-01-27T12:41:20.741Z,101653.13
2018-01-27T12:43:48.211Z,101653.87
2018-01-27T12:46:15.673Z,101645.95
2018-01-27T12:48:43.146Z,101642.83
2018-01-27T12:51:10.674Z,101646.53
2018-01-27T12:53:38.146Z,101641.42
2018-01-27T12:56:05.669Z,101637.02
2018-01-27T12:58:33.151Z,101642.86
2018-01-27T13:01:00.607Z,101646.47
2018-01-27T13:03:28.132Z,101646.13
2018-01-27T13:05:55.602Z,101638.13
2018-01-27T13:08:23.073Z,101645.54
2018-01-27T13:10:50.616Z,101643.87
2018-01-27T13:13:18.119Z,101650.17
2018-01-27T13:15:45.624Z,101645.36
2018-01-27T13:18:13.153Z,101642.52
2018-01-27T13:20:40.631Z,101640.04
2018-01-27T13:23:08.109Z,101636.33
2018-01-27T13:25:35.578Z,101631.59
2018-01-27T13:28:03.041Z,101627.20
2018-01-27T13:30:30.525Z,101627.73
2018-01-27T13:32:58.006Z,101625.47
2018-01-27T13:35:25.542Z,101623.13
2018-01-27T13:37:53.019Z,101629.55
2018-01-27T13:40:20.556Z,101639.73
2018-01-27T13:42:48.015Z,101636.52
2018-01-27T13:45:15.852Z,101634.88
2018-01-27T13:47:43.425Z,101640.95
2018-01-27T13:50:10.961Z,101632.62
2018-01-27T13:52:38.516Z,101626.33
2018-01-27T13:55:06.068Z,101626.00
2018-01-27T13:57:33.601Z,101622.80
2018-01-27T14:00:01.116Z,101626.09
2018-01-27T14:02:28.601Z,101623.75
2018-01-27T14:04:56.192Z,101621.85
2018-01-27T14:07:23.646Z,101623.54
2018-01-27T14:09:51.128Z,101617.67
2018-01-27T14:12:18.639Z,101620.61
2018-01-27T14:14:46.125Z,101616.77
2018-01-27T14:17:13.595Z,101616.84
2018-01-27T14:19:41.167Z,101620.61
2018-01-27T14:22:08.873Z,101624.47
2018-01-27T14:24:36.576Z,101627.80
2018-01-27T14:27:04.094Z,101627.52
2018-01-27T14:29:31.611Z,101632.11
2018-01-27T14:31:59.129Z,101634.66
2018-01-27T14:34:26.593Z,101640.98
2018-01-27T14:36:54.073Z,101640.05
2018-01-27T14:39:21.632Z,101636.09
2018-01-27T14:41:49.153Z,101649.09
2018-01-27T14:44:16.699Z,101648.64
2018-01-27T14:46:44.180Z,101649.03
2018-01-27T14:49:11.695Z,101651.55
2018-01-27T14:51:39.201Z,101652.84
2018-01-27T14:54:06.699Z,101661.20
2018-01-27T14:56:34.157Z,101665.20
2018-01-27T14:59:01.649Z,101664.69
2018-01-27T15:01:29.120Z,101666.48
2018-01-27T15:03:56.637Z,101665.03
2018-01-27T15:06:24.107Z,101660.28
2018-01-27T15:08:51.592Z,101663.78
2018-01-27T15:11:19.159Z,101662.94
2018-01-27T15:13:46.688Z,101654.44
2018-01-27T15:16:14.194Z,101656.75
2018-01-27T15:18:41.660Z,101650.49
2018-01-27T15:21:09.121Z,101644.52
2018-01-27T15:23:36.613Z,101646.86
2018-01-27T15:26:04.091Z,101655.21
2018-01-27T15:28:31.570Z,101653.63
2018-01-27T15:30:59.066Z,101657.05
2018-01-27T15:33:26.601Z,101664.98
2018-01-27T15:35:54.214Z,101659.25
2018-01-27T15:38:21.700Z,101652.77
2018-01-27T15:40:49.226Z,101658.55
2018-01-27T15:43:16.779Z,101667.27
2018-01-27T15:45:44.252Z,101664.30
2018-01-27T15:48:11.876Z,101665.77
2018-01-27T15:50:39.372Z,101664.67
2018-01-27T15:53:06.915Z,101667.84
2018-01-27T15:55:34.439Z,101666.52
2018-01-27T15:58:01.967Z,101666.92
2018-01-27T16:00:29.532Z,101671.88
2018-01-27T16:02:57.071Z,101677.60
2018-01-27T16:05:25.009Z,101674.00
2018-01-27T16:07:52.540Z,101682.52
2018-01-27T16:10:20.008Z,101684.37
2018-01-27T16:12:47.501Z,101680.78
2018-01-27T16:15:15.035Z,101679.69
2018-01-27T16:17:42.565Z,101681.02
2018-01-27T16:20:10.024Z,101679.16
2018-01-27T16:22:37.508Z,101684.27
2018-01-27T16:25:05.017Z,101685.58
2018-01-27T16:27:32.583Z,101688.98
2018-01-27T16:30:00.148Z,101691.33
2018-01-27T16:32:27.716Z,101693.87
2018-01-27T16:34:55.241Z,101694.29
2018-01-27T16:37:22.697Z,101699.49
2018-01-27T16:39:50.216Z,101712.18
2018-01-27T16:42:17.694Z,101721.18
2018-01-27T16:44:45.173Z,101723.23
2018-01-27T16:47:12.712Z,101728.64
2018-01-27T16:49:40.364Z,101734.80
2018-01-27T16:52:07.930Z,101735.72
2018-01-27T16:54:35.499Z,101734.68
2018-01-27T16:57:03.003Z,101733.66
2018-01-27T16:59:30.533Z,101730.28
2018-01-27T17:01:58.085Z,101721.67
2018-01-27T17:04:25.642Z,101721.36
2018-01-27T17:06:53.117Z,101715.94
2018-01-27T17:09:20.589Z,101724.13
2018-01-27T17:11:48.139Z,101719.44
2018-01-27T17:14:15.600Z,101711.16
2018-01-27T17:16:43.118Z,101708.37
2018-01-27T17:19:10.722Z,101711.34
2018-01-27T17:21:38.191Z,101716.56
2018-01-27T17:24:05.753Z,101729.98
2018-01-27T17:26:33.216Z,101729.37
2018-01-27T17:29:00.685Z,101721.58
2018-01-27T17:31:28.232Z,101724.36
2018-01-27T17:33:55.750Z,101723.34
2018-01-27T17:36:23.219Z,101718.52
2018-01-27T17:38:50.735Z,101715.36
2018-01-27T17:41:18.342Z,101723.34
2018-01-27T17:43:45.878Z,101723.05
2018-01-27T17:46:13.386Z,101727.86
2018-01-27T17:48:40.969Z,101731.64
2018-01-27T17:51:08.546Z,101728.47
2018-01-27T17:53:36.031Z,101729.27
2018-01-27T17:56:03.579Z,101719.66
2018-01-27T17:58:31.108Z,101722.14
2018-01-27T18:00:58.587Z,101730.81
2018-01-27T18:03:26.049Z,101720.48
2018-01-27T18:05:53.540Z,101710.98
2018-01-27T18:08:21.062Z,101711.20
2018-01-27T18:10:48.585Z,101702.20
2018-01-27T18:13:16.121Z,101696.77
2018-01-27T18:15:43.742Z,101686.34
2018-01-27T18:18:11.287Z,101680.83
2018-01-27T18:20:38.800Z,101676.66
2018-01-27T18:23:06.337Z,101673.87
2018-01-27T18:25:33.881Z,101675.82
2018-01-27T18:28:01.420Z,101677.56
2018-01-27T18:30:28.972Z,101669.05
2018-01-27T18:32:56.631Z,101663.86
2018-01-27T18:35:24.190Z,101666.91
2018-01-27T18:37:51.714Z,101669.56
2018-01-27T18:40:19.197Z,101670.17
2018-01-27T18:42:46.707Z,101666.91
2018-01-27T18:45:14.300Z,101669.45
2018-01-27T18:47:41.774Z,101668.03
2018-01-27T18:50:09.348Z,101663.31
2018-01-27T18:52:37.015Z,101661.08
2018-01-27T18:55:04.542Z,101669.86
2018-01-27T18:57:32.071Z,101659.73
2018-01-27T18:59:59.597Z,101665.64
2018-01-27T19:02:27.109Z,101666.75
2018-01-27T19:04:54.625Z,101656.63
2018-01-27T19:07:22.255Z,101653.65
2018-01-27T19:09:49.745Z,101657.41
2018-01-27T19:12:17.226Z,101639.65
2018-01-27T19:14:44.805Z,101635.05
2018-01-27T19:17:12.335Z,101634.31
2018-01-27T19:19:39.837Z,101633.29
2018-01-27T19:22:07.357Z,101635.13
2018-01-27T19:24:34.936Z,101625.19
2018-01-27T19:27:02.480Z,101623.55
2018-01-27T19:29:30.084Z,101628.48
2018-01-27T19:31:57.667Z,101629.81
2018-01-27T19:34:25.232Z,101623.41
2018-01-27T19:36:52.739Z,101627.02
2018-01-27T19:39:20.204Z,101628.63
2018-01-27T19:41:47.692Z,101631.47
2018-01-27T19:44:15.206Z,101622.37
2018-01-27T19:46:42.665Z,101624.69
2018-01-27T19:49:10.151Z,101621.81
2018-01-27T19:51:37.672Z,101616.39
2018-01-27T19:54:05.203Z,101610.98
2018-01-27T19:56:32.715Z,101624.53
2018-01-27T19:59:00.457Z,101634.39
2018-01-27T20:01:27.973Z,101649.37
2018-01-27T20:03:55.503Z,101665.00
2018-01-27T20:06:23.276Z,101673.41
2018-01-27T20:08:50.804Z,101665.40
2018-01-27T20:11:18.287Z,101662.19
2018-01-27T20:13:45.787Z,101656.24
2018-01-27T20:16:13.303Z,101658.59
2018-01-27T20:18:40.944Z,101656.58
2018-01-27T20:21:08.429Z,101659.10
2018-01-27T20:23:35.955Z,101668.72
2018-01-27T20:26:03.531Z,101670.15
2018-01-27T20:28:31.050Z,101669.69
2018-01-27T20:30:58.670Z,101670.16
2018-01-27T20:33:26.172Z,101661.05
2018-01-27T20:35:53.698Z,101651.73
2018-01-27T20:38:21.248Z,101648.09
2018-01-27T20:40:48.755Z,101647.72
2018-01-27T20:43:16.324Z,101649.33
2018-01-27T20:45:43.779Z,101651.63
2018-01-27T20:48:11.324Z,101649.45
2018-01-27T20:50:38.867Z,101635.62
2018-01-27T20:53:06.436Z,101635.45
2018-01-27T20:55:33.921Z,101628.53
2018-01-27T20:58:01.426Z,101606.25
2018-01-27T21:00:28.948Z,101596.42
2018-01-27T21:02:56.466Z,101579.61
2018-01-27T21:05:24.297Z,101568.82
2018-01-27T21:07:51.791Z,101573.79
2018-01-27T21:10:19.257Z,101567.75
2018-01-27T21:12:46.745Z,101568.08
2018-01-27T21:15:14.251Z,101578.69
2018-01-27T21:17:41.828Z,101588.08
2018-01-27T21:20:09.357Z,101600.63
2018-01-27T21:22:36.911Z,101602.29
2018-01-27T21:25:04.422Z,101597.52
2018-01-27T21:27:31.933Z,101590.41
2018-01-27T21:29:59.480Z,101594.56
2018-01-27T21:32:27.013Z,101593.27
2018-01-27T21:34:54.560Z,101583.59
2018-01-27T21:37:22.014Z,101586.46
2018-01-27T21:39:49.599Z,101565.55
2018-01-27T21:42:17.907Z,101555.45
2018-01-27T21:44:45.420Z,101547.69
2018-01-27T21:47:12.896Z,101556.56
2018-01-27T21:49:40.461Z,101551.77
2018-01-27T21:52:08.186Z,101549.53
2018-01-27T21:54:36.287Z,101545.15
2018-01-27T21:57:03.773Z,101540.55
2018-01-27T21:59:31.378Z,101539.92
2018-01-27T22:01:58.950Z,101541.98
2018-01-27T22:04:26.521Z,101553.42
2018-01-27T22:06:54.096Z,101564.69
2018-01-27T22:09:21.604Z,101569.70
2018-01-27T22:11:49.148Z,101556.84
2018-01-27T22:14:16.668Z,101554.41
2018-01-27T22:16:44.121Z,101558.79
2018-01-27T22:19:11.743Z,101561.14
2018-01-27T22:21:39.341Z,101558.20
2018-01-27T22:24:06.870Z,101556.38
2018-01-27T22:26:34.465Z,101555.13
2018-01-27T22:29:01.991Z,101547.91
2018-01-27T22:31:29.487Z,101553.94
2018-01-27T22:33:57.017Z,101552.31
2018-01-27T22:36:24.519Z,101547.52
2018-01-27T22:38:52.035Z,101536.28
2018-01-27T22:41:19.611Z,101527.32
2018-01-27T22:43:47.114Z,101514.75
2018-01-27T22:46:14.701Z,101502.13
2018-01-27T22:48:42.209Z,101488.55
2018-01-27T22:51:09.737Z,101480.30
2018-01-27T22:53:37.285Z,101489.88
2018-01-27T22:56:04.943Z,101493.45
2018-01-27T22:58:32.456Z,101481.51
2018-01-27T23:01:05.664Z,101480.28
2018-01-27T23:03:33.171Z,101482.42
2018-01-27T23:06:00.723Z,101474.46
2018-01-27T23:08:28.226Z,101462.72
2018-01-27T23:10:55.735Z,101461.09
2018-01-27T23:13:23.350Z,101459.97
2018-01-27T23:15:53.716Z,101462.72
2018-01-27T23:18:21.277Z,101475.58
2018-01-27T23:20:48.832Z,101469.37
2018-01-27T23:23:16.289Z,101464.36
2018-01-27T23:25:43.842Z,101461.90
2018-01-27T23:28:11.323Z,101459.48
2018-01-27T23:30:38.855Z,101448.84
2018-01-27T23:33:06.398Z,101436.31
2018-01-27T23:35:33.950Z,101431.29
2018-01-27T23:38:01.401Z,101419.34
2018-01-27T23:40:28.891Z,101419.23
2018-01-27T23:42:56.400Z,101412.41
2018-01-27T23:45:23.860Z,101404.73
2018-01-27T23:47:51.359Z,101411.48
2018-01-27T23:50:18.882Z,101403.11
2018-01-27T23:52:46.351Z,101400.44
2018-01-27T23:55:13.867Z,101393.19
2018-01-27T23:57:41.364Z,101394.70
